Time;durP1;ratioP1;P1;durP2;ratioP2;P2;SDS_P1;SDS_P2;PMS_P1;PMS_P2;Temp;Humidity;BMP_temperature;BMP_pressure;BME280_temperature;BME280_humidity;BME280_pressure;Samples;Min_cycle;Max_cycle;Signal;HPM_P1;HPM_P2
2023/08/20 00:01:23;;;;;;;49.35;37.33;;;21.00;99.90;;;;;;5066159;28;20052;-66
2023/08/20 00:03:51;;;;;;;53.50;36.88;;;20.90;99.90;;;;;;5056300;28;20040;-66
2023/08/20 00:06:17;;;;;;;57.35;36.55;;;20.90;99.90;;;;;;5051619;28;20529;-66
2023/08/20 00:08:43;;;;;;;46.90;34.42;;;20.80;99.90;;;;;;5063949;28;20057;-63
2023/08/20 00:11:11;;;;;;;50.33;35.03;;;20.80;99.90;;;;;;5056465;28;20094;-66
2023/08/20 00:13:37;;;;;;;49.05;34.60;;;20.80;99.90;;;;;;5051634;28;20478;-66
2023/08/20 00:16:03;;;;;;;49.33;36.25;;;20.80;99.90;;;;;;5062297;28;20048;-66
2023/08/20 00:18:29;;;;;;;54.78;35.33;;;20.80;99.90;;;;;;5059728;28;20048;-65
2023/08/20 00:20:56;;;;;;;49.90;36.28;;;20.90;99.90;;;;;;5058179;28;20048;-66
2023/08/20 00:23:22;;;;;;;60.03;35.75;;;20.90;99.90;;;;;;5045540;28;20140;-65
2023/08/20 00:25:49;;;;;;;56.38;35.60;;;20.80;99.90;;;;;;5055778;28;20113;-66
2023/08/20 00:28:14;;;;;;;50.35;35.72;;;20.80;99.90;;;;;;5056466;28;20052;-65
2023/08/20 00:30:41;;;;;;;51.50;36.85;;;20.70;99.90;;;;;;5047267;28;20060;-66
2023/08/20 00:33:07;;;;;;;52.15;35.08;;;20.60;99.90;;;;;;5039790;28;20049;-66
2023/08/20 00:35:33;;;;;;;51.45;35.50;;;20.60;99.90;;;;;;5035095;28;20414;-65
2023/08/20 00:37:59;;;;;;;58.13;35.90;;;20.60;99.90;;;;;;5027966;28;20096;-66
2023/08/20 00:40:26;;;;;;;53.85;35.60;;;20.50;99.90;;;;;;5012481;28;20051;-66
2023/08/20 00:42:52;;;;;;;60.05;35.63;;;20.60;99.90;;;;;;5024621;28;20041;-66
2023/08/20 00:45:18;;;;;;;56.95;34.78;;;20.60;99.90;;;;;;5041916;28;20048;-65
2023/08/20 00:47:45;;;;;;;65.20;35.53;;;20.60;99.90;;;;;;5032351;28;20057;-66
2023/08/20 00:50:12;;;;;;;57.10;35.35;;;20.60;99.90;;;;;;5079225;28;20086;-66
2023/08/20 00:52:38;;;;;;;58.63;34.53;;;20.60;99.90;;;;;;5031613;28;20049;-66
2023/08/20 00:55:12;;;;;;;51.38;34.67;;;20.60;99.90;;;;;;4976108;28;20191;-65
2023/08/20 00:57:39;;;;;;;59.13;35.22;;;20.70;99.90;;;;;;5027789;28;20056;-66
2023/08/20 01:00:09;;;;;;;52.05;35.67;;;20.60;99.90;;;;;;5011041;28;20510;-65
2023/08/20 01:02:36;;;;;;;50.25;33.50;;;20.60;99.90;;;;;;5014087;28;20057;-66
2023/08/20 01:05:06;;;;;;;47.03;33.85;;;20.60;99.90;;;;;;5021518;28;20049;-66
2023/08/20 01:07:38;;;;;;;53.07;35.13;;;20.60;99.90;;;;;;4989026;28;20093;-66
2023/08/20 01:10:09;;;;;;;49.30;34.25;;;20.60;99.90;;;;;;5033316;28;20044;-66
2023/08/20 01:12:36;;;;;;;47.95;34.95;;;20.60;99.90;;;;;;5042766;28;20041;-65
2023/08/20 01:15:02;;;;;;;44.80;31.85;;;20.50;99.90;;;;;;5046069;28;20048;-66
2023/08/20 01:17:29;;;;;;;49.53;32.90;;;20.50;99.90;;;;;;5016559;28;20387;-66
2023/08/20 01:19:55;;;;;;;46.30;34.88;;;20.50;99.90;;;;;;5053713;28;20132;-66
2023/08/20 01:23:06;;;;;;;47.80;34.08;;;20.40;99.90;;;;;;5002130;28;20843;-65
2023/08/20 01:25:51;;;;;;;50.78;33.05;;;20.40;99.90;;;;;;4982089;28;21919;-66
2023/08/20 01:28:22;;;;;;;41.40;33.58;;;20.30;99.90;;;;;;4953730;28;22059;-66
2023/08/20 01:30:49;;;;;;;48.53;34.25;;;20.30;99.90;;;;;;4982620;28;23130;-66
2023/08/20 01:33:16;;;;;;;49.25;34.90;;;20.20;99.90;;;;;;5002234;28;23904;-66
2023/08/20 01:35:42;;;;;;;53.30;34.88;;;20.20;99.90;;;;;;5030355;28;24554;-66
2023/08/20 01:38:17;;;;;;;50.50;34.17;;;20.20;99.90;;;;;;4986998;28;28618;-66
2023/08/20 01:40:43;;;;;;;49.17;34.47;;;20.20;99.90;;;;;;5049513;28;24749;-66
2023/08/20 01:43:09;;;;;;;50.95;35.10;;;20.10;99.90;;;;;;5048829;28;30045;-66
2023/08/20 01:45:35;;;;;;;53.42;34.92;;;20.10;99.90;;;;;;4981607;28;30578;-66
2023/08/20 01:48:01;;;;;;;48.40;34.58;;;20.10;99.90;;;;;;5011981;28;30340;-66
2023/08/20 01:50:27;;;;;;;47.55;34.03;;;20.00;99.90;;;;;;5022762;28;33080;-65
2023/08/20 01:52:53;;;;;;;53.72;36.17;;;20.00;99.90;;;;;;4989135;28;33807;-64
2023/08/20 01:55:19;;;;;;;47.92;35.22;;;20.00;99.90;;;;;;4985469;28;34611;-66
2023/08/20 01:57:45;;;;;;;52.60;35.92;;;20.00;99.90;;;;;;4982211;28;34891;-66
2023/08/20 02:00:12;;;;;;;49.97;35.25;;;19.90;99.90;;;;;;5014091;28;24840;-66
2023/08/20 02:02:40;;;;;;;52.80;33.60;;;20.00;99.90;;;;;;5003409;28;36482;-65
2023/08/20 02:05:07;;;;;;;45.72;33.92;;;20.00;99.90;;;;;;5013091;28;24992;-66
2023/08/20 02:07:33;;;;;;;50.88;33.50;;;20.00;99.90;;;;;;5009459;28;38423;-66
2023/08/20 02:09:59;;;;;;;61.88;44.92;;;19.90;99.90;;;;;;5010745;28;39621;-65
2023/08/20 02:12:27;;;;;;;59.42;40.70;;;19.90;99.90;;;;;;4977576;28;40624;-66
2023/08/20 02:14:53;;;;;;;56.63;38.00;;;19.90;99.90;;;;;;4984115;28;25476;-66
2023/08/20 02:17:23;;;;;;;49.72;35.72;;;19.90;99.90;;;;;;4967271;28;42518;-66
2023/08/20 02:19:49;;;;;;;49.20;35.20;;;19.80;99.90;;;;;;4986166;28;43526;-66
2023/08/20 02:22:17;;;;;;;50.15;36.17;;;19.80;99.90;;;;;;5010874;28;44178;-66
2023/08/20 02:24:43;;;;;;;52.35;36.13;;;19.80;99.90;;;;;;4954798;28;45584;-66
2023/08/20 02:27:09;;;;;;;48.22;36.17;;;19.80;99.90;;;;;;4982254;28;45959;-66
2023/08/20 02:29:35;;;;;;;51.08;36.70;;;19.70;99.90;;;;;;4997567;28;24940;-66
2023/08/20 02:32:00;;;;;;;58.03;39.72;;;19.70;99.90;;;;;;5000111;28;25043;-66
2023/08/20 02:34:26;;;;;;;51.05;37.65;;;19.70;99.90;;;;;;4976665;28;48369;-66
2023/08/20 02:36:52;;;;;;;58.03;38.17;;;19.70;99.90;;;;;;4959625;28;49109;-66
2023/08/20 02:39:20;;;;;;;51.40;37.67;;;19.60;99.90;;;;;;4967207;28;49312;-66
2023/08/20 02:41:46;;;;;;;51.67;35.58;;;19.60;99.90;;;;;;4971127;28;49324;-66
2023/08/20 02:44:12;;;;;;;45.38;35.72;;;19.60;99.90;;;;;;4987508;28;49307;-66
2023/08/20 02:46:38;;;;;;;48.45;36.08;;;19.70;99.90;;;;;;5007105;28;54941;-66
2023/08/20 02:49:04;;;;;;;48.13;34.85;;;19.60;99.90;;;;;;5028719;28;56591;-66
2023/08/20 02:51:30;;;;;;;53.65;36.00;;;19.60;99.90;;;;;;4994287;28;57874;-65
2023/08/20 02:53:56;;;;;;;50.25;34.47;;;19.60;99.90;;;;;;4964872;28;50182;-66
2023/08/20 02:56:22;;;;;;;53.03;34.70;;;19.50;99.90;;;;;;4943212;28;49977;-66
2023/08/20 02:58:47;;;;;;;44.47;35.90;;;19.50;99.90;;;;;;4955745;28;61003;-66
2023/08/20 03:01:25;;;;;;;49.22;36.13;;;19.50;99.90;;;;;;4941740;28;49758;-66
2023/08/20 03:03:52;;;;;;;50.05;36.97;;;19.50;99.90;;;;;;5003722;28;49334;-66
2023/08/20 03:06:18;;;;;;;52.17;35.65;;;19.40;99.90;;;;;;5008048;28;65186;-65
2023/08/20 03:08:45;;;;;;;49.78;35.67;;;19.40;99.90;;;;;;4962704;28;49987;-66
2023/08/20 03:11:11;;;;;;;47.22;35.63;;;19.40;99.90;;;;;;4971404;28;49941;-66
2023/08/20 03:13:37;;;;;;;46.85;35.83;;;19.40;99.90;;;;;;5001841;28;49283;-66
2023/08/20 03:16:03;;;;;;;53.10;36.10;;;19.40;99.90;;;;;;5006735;28;49532;-65
2023/08/20 03:18:29;;;;;;;51.17;37.92;;;19.30;99.90;;;;;;5006864;28;49835;-66
2023/08/20 03:20:56;;;;;;;48.97;36.50;;;19.30;99.90;;;;;;4971947;28;72668;-66
2023/08/20 03:23:23;;;;;;;49.88;37.38;;;19.30;99.90;;;;;;4975309;28;49911;-66
2023/08/20 03:25:49;;;;;;;51.05;36.22;;;19.30;99.90;;;;;;4943410;28;49912;-66
2023/08/20 03:28:16;;;;;;;51.30;35.20;;;19.20;99.90;;;;;;4963536;28;50186;-66
2023/08/20 03:30:41;;;;;;;51.25;35.38;;;19.30;99.90;;;;;;4937519;28;57391;-66
2023/08/20 03:33:07;;;;;;;44.92;34.92;;;19.20;99.90;;;;;;4906255;28;50182;-66
2023/08/20 03:35:35;;;;;;;50.03;36.95;;;19.20;99.90;;;;;;4925357;28;59356;-66
2023/08/20 03:38:01;;;;;;;50.22;36.13;;;19.20;99.90;;;;;;4939949;28;60860;-66
2023/08/20 03:40:28;;;;;;;49.25;36.88;;;19.10;99.90;;;;;;4899235;28;50937;-66
2023/08/20 03:42:54;;;;;;;51.67;36.72;;;19.00;99.90;;;;;;4947343;28;51129;-65
2023/08/20 03:45:20;;;;;;;46.65;34.70;;;19.10;99.90;;;;;;4984574;28;84537;-65
2023/08/20 03:47:46;;;;;;;54.20;37.05;;;19.10;99.90;;;;;;4975527;28;62019;-66
2023/08/20 03:50:12;;;;;;;56.63;38.55;;;19.00;99.90;;;;;;4948853;28;50171;-66
2023/08/20 03:52:39;;;;;;;52.35;36.92;;;19.10;99.90;;;;;;4917598;28;50058;-65
2023/08/20 03:55:05;;;;;;;49.63;37.35;;;19.00;99.90;;;;;;4947876;28;49190;-65
2023/08/20 03:57:32;;;;;;;52.90;38.75;;;19.00;99.90;;;;;;4934619;28;49269;-66
2023/08/20 03:59:58;;;;;;;50.42;38.25;;;19.00;99.90;;;;;;4953191;28;49598;-66
2023/08/20 04:02:24;;;;;;;52.83;38.00;;;19.00;99.90;;;;;;4967414;28;42606;-66
2023/08/20 04:04:50;;;;;;;49.42;37.88;;;19.10;99.90;;;;;;4996713;28;24710;-64
2023/08/20 04:07:18;;;;;;;51.60;37.50;;;19.00;99.90;;;;;;4984535;28;24863;-66
2023/08/20 04:09:44;;;;;;;59.08;39.38;;;19.10;99.90;;;;;;4911220;28;49104;-65
2023/08/20 04:12:12;;;;;;;54.50;39.67;;;19.10;99.90;;;;;;4917814;28;49631;-65
2023/08/20 04:14:37;;;;;;;53.03;39.00;;;19.10;99.90;;;;;;4974936;28;24991;-65
2023/08/20 04:17:04;;;;;;;51.70;38.60;;;19.10;99.90;;;;;;4939737;28;24953;-66
2023/08/20 04:19:31;;;;;;;56.63;38.67;;;19.20;99.90;;;;;;4896354;28;49338;-66
2023/08/20 04:21:57;;;;;;;53.67;39.35;;;19.20;99.90;;;;;;4941760;28;49038;-66
2023/08/20 04:24:23;;;;;;;51.42;38.05;;;19.20;99.90;;;;;;4916851;28;49186;-65
2023/08/20 04:26:49;;;;;;;51.80;38.60;;;19.20;99.90;;;;;;4807567;28;49807;-66
2023/08/20 04:29:21;;;;;;;54.90;39.15;;;19.30;99.90;;;;;;4588746;29;22593;-66
2023/08/20 04:31:47;;;;;;;50.20;39.83;;;19.30;99.90;;;;;;4681700;29;20059;-66
2023/08/20 04:34:13;;;;;;;56.88;39.90;;;19.30;99.90;;;;;;4694222;29;20064;-66
2023/08/20 04:36:46;;;;;;;54.83;40.67;;;19.40;99.90;;;;;;4666749;29;20579;-66
2023/08/20 04:39:12;;;;;;;57.80;41.03;;;19.40;99.90;;;;;;4629247;29;20059;-65
2023/08/20 04:41:43;;;;;;;50.25;40.53;;;19.40;99.90;;;;;;4690406;29;20052;-66
2023/08/20 04:44:13;;;;;;;57.47;39.78;;;19.40;99.90;;;;;;4716757;29;20546;-66
2023/08/20 04:46:43;;;;;;;53.15;40.20;;;19.50;99.90;;;;;;4758107;29;20059;-66
2023/08/20 04:49:09;;;;;;;55.38;40.22;;;19.50;99.90;;;;;;4756604;29;20058;-66
2023/08/20 04:51:38;;;;;;;54.25;38.13;;;19.50;99.90;;;;;;4660391;29;20054;-66
2023/08/20 04:54:04;;;;;;;51.20;39.10;;;19.50;99.90;;;;;;4743268;29;20405;-66
2023/08/20 04:56:30;;;;;;;51.70;38.67;;;19.50;99.90;;;;;;4727972;29;20416;-65
2023/08/20 04:58:56;;;;;;;50.75;39.78;;;19.60;99.90;;;;;;4733480;29;20047;-65
2023/08/20 05:01:42;;;;;;;51.40;39.10;;;19.70;99.90;;;;;;4801022;29;20049;-65
2023/08/20 05:04:09;;;;;;;55.13;40.88;;;19.80;99.90;;;;;;4931133;28;20058;-66
2023/08/20 05:06:36;;;;;;;53.08;38.70;;;19.90;99.90;;;;;;4932684;28;20054;-66
2023/08/20 05:09:03;;;;;;;50.17;38.38;;;20.00;99.90;;;;;;4963570;28;20058;-66
2023/08/20 05:11:31;;;;;;;54.88;41.63;;;20.00;99.90;;;;;;4974984;28;20050;-65
2023/08/20 05:13:57;;;;;;;54.70;42.50;;;20.00;99.90;;;;;;4956687;28;20038;-64
2023/08/20 05:16:23;;;;;;;54.38;41.22;;;20.00;99.90;;;;;;4953108;28;21001;-66
2023/08/20 05:18:50;;;;;;;49.70;40.20;;;20.00;99.90;;;;;;4972404;28;22067;-66
2023/08/20 05:21:16;;;;;;;54.95;38.72;;;20.10;99.90;;;;;;4977044;28;23100;-65
2023/08/20 05:23:42;;;;;;;54.97;40.63;;;20.20;99.90;;;;;;4964845;28;23511;-66
2023/08/20 05:26:08;;;;;;;57.15;37.80;;;20.30;99.90;;;;;;5016618;28;24841;-65
2023/08/20 05:28:34;;;;;;;50.50;37.15;;;20.30;99.90;;;;;;4997956;28;24966;-66
2023/08/20 05:31:00;;;;;;;52.97;38.80;;;20.40;99.90;;;;;;4989488;28;26703;-64
2023/08/20 05:33:26;;;;;;;52.17;38.85;;;20.50;99.90;;;;;;4977837;28;28143;-65
2023/08/20 05:35:54;;;;;;;57.20;40.38;;;20.60;99.90;;;;;;4969525;28;28651;-65
2023/08/20 05:38:21;;;;;;;59.17;40.40;;;20.70;99.90;;;;;;4965416;28;31122;-65
2023/08/20 05:40:48;;;;;;;59.17;41.80;;;20.70;99.90;;;;;;4976083;28;31097;-65
2023/08/20 05:43:14;;;;;;;54.97;40.05;;;20.80;99.90;;;;;;4982573;28;31714;-65
2023/08/20 05:45:41;;;;;;;56.60;40.17;;;21.00;99.90;;;;;;4936888;28;33665;-65
2023/08/20 05:48:09;;;;;;;51.45;40.08;;;21.10;99.90;;;;;;4941796;28;25399;-65
2023/08/20 05:50:35;;;;;;;56.88;41.22;;;21.20;99.90;;;;;;4972333;28;35032;-65
2023/08/20 05:53:01;;;;;;;55.28;41.13;;;21.30;99.90;;;;;;4929191;28;36364;-64
2023/08/20 05:55:29;;;;;;;60.50;40.47;;;21.50;99.90;;;;;;4961667;28;37297;-65
2023/08/20 05:57:55;;;;;;;50.80;39.20;;;21.60;99.90;;;;;;4946904;28;38157;-65
2023/08/20 06:00:21;;;;;;;51.47;38.58;;;21.70;99.90;;;;;;4946288;28;25395;-65
2023/08/20 06:02:48;;;;;;;51.90;39.17;;;21.90;99.90;;;;;;4957634;28;41293;-65
2023/08/20 06:05:14;;;;;;;65.93;40.92;;;22.10;99.90;;;;;;4970849;28;41816;-65
2023/08/20 06:07:40;;;;;;;55.67;40.03;;;21.80;99.90;;;;;;4977823;28;25433;-65
2023/08/20 06:10:07;;;;;;;59.17;38.83;;;22.10;99.90;;;;;;4968007;28;43906;-65
2023/08/20 06:12:34;;;;;;;63.20;40.15;;;22.30;99.90;;;;;;4973110;28;44725;-64
2023/08/20 06:15:00;;;;;;;53.50;39.65;;;22.50;99.90;;;;;;4995242;28;46561;-65
2023/08/20 06:17:26;;;;;;;52.55;38.22;;;22.50;99.90;;;;;;4981740;28;44285;-65
2023/08/20 06:19:52;;;;;;;55.00;38.55;;;22.70;99.90;;;;;;4982325;28;35586;-65
2023/08/20 06:22:17;;;;;;;47.60;37.50;;;22.90;99.90;;;;;;4992764;28;24900;-65
2023/08/20 06:24:43;;;;;;;49.33;37.15;;;23.10;99.90;;;;;;4972755;28;24955;-65
2023/08/20 06:27:10;;;;;;;51.97;37.17;;;23.20;99.90;;;;;;4983222;28;24997;-65
2023/08/20 06:29:37;;;;;;;46.20;35.47;;;23.30;99.90;;;;;;4976170;28;24847;-65
2023/08/20 06:32:03;;;;;;;45.80;34.97;;;23.50;99.90;;;;;;4969046;28;44729;-65
2023/08/20 06:34:29;;;;;;;42.65;35.25;;;23.60;99.90;;;;;;4972517;28;24763;-65
2023/08/20 06:36:55;;;;;;;44.92;34.85;;;23.70;99.90;;;;;;4977882;28;24837;-65
2023/08/20 06:39:21;;;;;;;46.53;34.05;;;23.70;99.90;;;;;;4971702;28;24924;-65
2023/08/20 06:41:47;;;;;;;50.22;34.08;;;23.70;99.90;;;;;;4986495;28;24968;-65
2023/08/20 06:44:19;;;;;;;44.42;34.40;;;23.70;99.90;;;;;;4933134;28;24738;-65
2023/08/20 06:46:45;;;;;;;64.97;36.33;;;23.80;99.90;;;;;;4944900;28;24919;-65
2023/08/20 06:49:11;;;;;;;65.95;35.83;;;24.00;99.90;;;;;;4972578;28;57129;-65
2023/08/20 06:51:37;;;;;;;59.92;35.78;;;24.00;99.90;;;;;;4968221;28;37411;-64
2023/08/20 06:54:05;;;;;;;58.47;35.42;;;24.20;99.90;;;;;;4997116;28;24551;-66
2023/08/20 06:56:32;;;;;;;57.90;36.35;;;24.10;99.90;;;;;;4977082;28;25006;-65
2023/08/20 06:58:58;;;;;;;53.85;34.65;;;24.20;99.90;;;;;;4970239;28;24730;-65
2023/08/20 07:01:24;;;;;;;50.35;32.42;;;24.30;99.90;;;;;;4965208;28;24893;-65
2023/08/20 07:03:50;;;;;;;47.67;33.30;;;23.90;99.90;;;;;;4942661;28;24872;-65
2023/08/20 07:06:18;;;;;;;44.80;31.38;;;23.70;99.90;;;;;;4930724;28;24921;-65
2023/08/20 07:08:44;;;;;;;44.08;31.98;;;23.60;99.90;;;;;;4961527;28;40314;-65
2023/08/20 07:11:10;;;;;;;50.05;33.05;;;23.90;99.90;;;;;;4966748;28;24622;-65
2023/08/20 07:13:37;;;;;;;46.05;34.10;;;24.10;99.90;;;;;;4971430;28;48535;-65
2023/08/20 07:16:03;;;;;;;52.42;33.58;;;24.40;99.90;;;;;;4962709;28;24953;-65
2023/08/20 07:18:29;;;;;;;48.63;34.03;;;24.50;99.90;;;;;;4951372;28;48827;-65
2023/08/20 07:23:47;;;;;;;53.92;38.75;;;24.70;99.90;;;;;;5154856;27;20145;-65
2023/08/20 07:26:13;;;;;;;57.50;38.15;;;25.10;99.90;;;;;;5114588;27;20489;-65
2023/08/20 07:28:59;;;;;;;53.25;36.60;;;25.30;99.90;;;;;;5043593;28;1423819;-65
2023/08/20 07:31:34;;;;;;;53.20;37.95;;;25.70;99.90;;;;;;5075262;28;20401;-65
2023/08/20 07:34:02;;;;;;;48.80;36.55;;;26.00;99.90;;;;;;5056398;28;20361;-65
2023/08/20 07:36:29;;;;;;;52.55;34.50;;;26.20;99.90;;;;;;5071081;28;20062;-65
2023/08/20 07:38:55;;;;;;;49.28;32.40;;;26.60;99.90;;;;;;5083539;28;20032;-65
2023/08/20 07:41:21;;;;;;;46.75;33.70;;;26.90;99.90;;;;;;5085135;28;20432;-65
2023/08/20 07:43:48;;;;;;;45.78;31.35;;;26.90;99.90;;;;;;5072223;28;20060;-65
2023/08/20 07:46:15;;;;;;;44.38;31.98;;;27.10;99.90;;;;;;5083229;28;20046;-66
2023/08/20 07:48:41;;;;;;;42.28;31.20;;;27.10;99.90;;;;;;5083742;28;20068;-65
2023/08/20 07:51:08;;;;;;;48.45;31.80;;;27.70;99.90;;;;;;5084841;28;20123;-66
2023/08/20 07:53:34;;;;;;;48.95;34.47;;;27.80;99.40;;;;;;5009300;28;20100;-66
2023/08/20 07:56:01;;;;;;;43.47;31.55;;;27.90;98.60;;;;;;5052373;28;20056;-65
2023/08/20 07:58:28;;;;;;;48.05;32.20;;;28.10;99.00;;;;;;5081656;28;20043;-65
2023/08/20 08:00:55;;;;;;;44.67;31.60;;;28.20;97.80;;;;;;5081949;28;20036;-66
2023/08/20 08:03:21;;;;;;;47.03;32.10;;;28.50;97.40;;;;;;5065282;28;20043;-66
2023/08/20 08:05:48;;;;;;;48.50;32.88;;;28.60;96.50;;;;;;5074015;28;20041;-65
2023/08/20 08:08:16;;;;;;;44.55;31.95;;;28.70;96.30;;;;;;5057934;28;20057;-66
2023/08/20 08:10:44;;;;;;;40.17;30.65;;;28.90;95.80;;;;;;5064439;28;20036;-66
2023/08/20 08:13:15;;;;;;;47.03;33.13;;;29.60;96.00;;;;;;5079912;28;20052;-66
2023/08/20 08:15:40;;;;;;;;;;;29.90;93.50;;;;;;5065313;28;20070;-65
2023/08/20 08:18:07;;;;;;;35.08;25.13;;;29.90;92.80;;;;;;5049148;28;19919;-66
2023/08/20 08:20:34;;;;;;;31.10;25.42;;;29.00;92.90;;;;;;5071585;28;20045;-66
2023/08/20 08:23:00;;;;;;;31.40;24.70;;;29.10;92.60;;;;;;5070473;28;20114;-66
2023/08/20 08:25:27;;;;;;;36.08;28.58;;;29.00;93.10;;;;;;5078591;28;20075;-66
2023/08/20 08:27:53;;;;;;;40.35;31.55;;;28.90;93.20;;;;;;5071435;28;20048;-66
2023/08/20 08:30:19;;;;;;;36.45;29.08;;;29.10;93.00;;;;;;5075886;28;20044;-66
2023/08/20 08:32:45;;;;;;;39.65;29.13;;;29.60;93.00;;;;;;5066588;28;20498;-66
2023/08/20 08:35:11;;;;;;;40.28;26.63;;;29.30;92.30;;;;;;5063034;28;20059;-66
2023/08/20 08:37:37;;;;;;;35.20;27.70;;;29.80;91.80;;;;;;5050961;28;20048;-67
2023/08/20 08:40:05;;;;;;;36.33;29.30;;;30.40;91.90;;;;;;5060815;28;22648;-66
2023/08/20 08:42:33;;;;;;;37.03;28.42;;;29.80;90.60;;;;;;5046277;28;20418;-66
2023/08/20 08:45:02;;;;;;;38.13;28.60;;;30.30;90.40;;;;;;5052974;28;20040;-62
2023/08/20 08:47:29;;;;;;;35.08;26.92;;;30.70;89.00;;;;;;5019651;28;20049;-66
2023/08/20 08:49:56;;;;;;;34.88;27.55;;;31.10;89.30;;;;;;4999444;28;20045;-67
2023/08/20 08:52:24;;;;;;;37.20;25.95;;;31.40;84.20;;;;;;5018731;28;20038;-67
2023/08/20 08:54:50;;;;;;;34.25;26.73;;;31.20;87.10;;;;;;4984093;28;20080;-66
2023/08/20 08:57:16;;;;;;;28.98;23.55;;;29.80;88.20;;;;;;4980891;28;20041;-66
2023/08/20 08:59:43;;;;;;;28.50;23.83;;;30.10;91.20;;;;;;4975779;28;20045;-66
2023/08/20 09:02:10;;;;;;;36.90;23.92;;;30.30;90.00;;;;;;5013837;28;20065;-67
2023/08/20 09:04:41;;;;;;;25.27;22.52;;;29.80;90.60;;;;;;5014788;28;20651;-67
2023/08/20 09:07:13;;;;;;;28.67;23.15;;;30.40;88.90;;;;;;5011306;28;20911;-66
2023/08/20 09:09:45;;;;;;;31.50;25.10;;;31.10;84.70;;;;;;5014771;28;21814;-67
2023/08/20 09:12:19;;;;;;;26.75;22.25;;;31.00;84.70;;;;;;5049017;28;22305;-68
2023/08/20 09:14:49;;;;;;;26.25;21.55;;;31.70;83.90;;;;;;5033377;28;23280;-67
2023/08/20 09:17:16;;;;;;;26.35;22.30;;;32.30;80.90;;;;;;5031175;28;24264;-67
2023/08/20 09:19:45;;;;;;;26.85;21.35;;;31.60;80.40;;;;;;5030022;28;24258;-67
2023/08/20 09:22:14;;;;;;;24.30;20.25;;;31.50;82.60;;;;;;5033571;28;26105;-68
2023/08/20 09:24:52;;;;;;;23.08;20.30;;;31.10;81.60;;;;;;5010577;28;26488;-67
2023/08/20 09:27:18;;;;;;;28.00;20.20;;;30.90;85.50;;;;;;5019556;28;26665;-66
2023/08/20 09:29:45;;;;;;;21.05;18.27;;;31.80;81.40;;;;;;5030314;28;27781;-67
2023/08/20 09:32:22;;;;;;;24.65;19.23;;;32.20;83.70;;;;;;5005097;28;28165;-67
2023/08/20 09:34:50;;;;;;;23.60;17.85;;;32.40;75.90;;;;;;5020620;28;30711;-67
2023/08/20 09:37:17;;;;;;;21.17;17.67;;;32.60;77.90;;;;;;5025604;28;31875;-67
2023/08/20 09:39:44;;;;;;;23.30;18.20;;;33.40;78.00;;;;;;5030128;28;25389;-67
2023/08/20 09:42:11;;;;;;;25.08;20.17;;;33.80;72.40;;;;;;5009757;28;33045;-67
2023/08/20 09:44:40;;;;;;;46.30;31.40;;;33.10;74.50;;;;;;5024874;28;24944;-67
2023/08/20 09:47:10;;;;;;;51.90;35.33;;;32.30;75.60;;;;;;5033081;28;34615;-66
2023/08/20 09:49:41;;;;;;;109.30;62.80;;;33.30;74.40;;;;;;5016669;28;35989;-67
2023/08/20 09:52:09;;;;;;;58.47;36.60;;;33.60;71.70;;;;;;4998791;28;36664;-66
2023/08/20 09:54:59;;;;;;;20.50;16.73;;;33.10;72.20;;;;;;5017472;28;37889;-66
2023/08/20 09:57:38;;;;;;;19.53;15.93;;;33.30;73.40;;;;;;5010449;28;38298;-67
2023/08/20 10:00:09;;;;;;;25.63;16.42;;;33.50;70.20;;;;;;5022654;28;38997;-67
2023/08/20 10:02:42;;;;;;;18.30;16.38;;;34.00;71.50;;;;;;5009146;28;39049;-68
2023/08/20 10:05:09;;;;;;;20.35;17.45;;;34.40;67.10;;;;;;4996186;28;25932;-66
2023/08/20 10:07:36;;;;;;;40.03;27.70;;;34.40;67.70;;;;;;5017468;28;41047;-67
2023/08/20 10:10:08;;;;;;;51.88;33.17;;;34.30;64.60;;;;;;5019562;28;42119;-68
2023/08/20 10:12:36;;;;;;;26.98;20.00;;;34.00;67.60;;;;;;4997956;28;42466;-68
2023/08/20 10:15:02;;;;;;;24.50;19.20;;;34.00;71.50;;;;;;4983804;28;25344;-67
2023/08/20 10:17:33;;;;;;;26.40;20.92;;;34.40;65.50;;;;;;4999925;28;45170;-68
2023/08/20 10:20:01;;;;;;;23.88;19.60;;;34.80;65.60;;;;;;5024823;28;46702;-68
2023/08/20 10:22:40;;;;;;;28.45;19.25;;;35.00;62.30;;;;;;5019377;28;47154;-67
2023/08/20 10:25:27;;;;;;;21.60;17.38;;;35.00;61.30;;;;;;5003032;28;47935;-68
2023/08/20 10:27:54;;;;;;;18.55;16.05;;;34.00;63.40;;;;;;5018022;28;49681;-67
2023/08/20 10:30:25;;;;;;;17.23;15.32;;;34.40;63.60;;;;;;5018303;28;49072;-68
2023/08/20 10:32:57;;;;;;;19.88;16.95;;;34.70;60.70;;;;;;5018602;28;48508;-67
2023/08/20 10:35:28;;;;;;;21.10;16.02;;;33.90;62.30;;;;;;5017993;28;58700;-67
2023/08/20 10:38:05;;;;;;;20.55;15.73;;;34.00;62.70;;;;;;4992343;28;48751;-68
2023/08/20 10:40:54;;;;;;;21.70;16.42;;;33.30;63.10;;;;;;5016046;28;50016;-67
2023/08/20 10:43:25;;;;;;;23.40;17.70;;;34.00;65.30;;;;;;5003589;28;37517;-68
2023/08/20 10:46:20;;;;;;;20.65;16.73;;;34.60;63.50;;;;;;5023748;28;48459;-68
2023/08/20 10:48:49;;;;;;;19.33;16.75;;;35.10;62.40;;;;;;5034182;28;48453;-68
2023/08/20 10:51:29;;;;;;;23.20;17.20;;;35.70;61.60;;;;;;5034132;28;49732;-68
2023/08/20 10:54:01;;;;;;;20.77;16.52;;;35.90;60.40;;;;;;5040377;28;48929;-68
2023/08/20 10:56:51;;;;;;;23.65;17.17;;;35.90;56.20;;;;;;5028762;28;49411;-67
2023/08/20 10:59:21;;;;;;;23.92;17.58;;;35.40;58.20;;;;;;4990378;28;49510;-67
2023/08/20 11:01:48;;;;;;;19.02;17.02;;;35.40;57.40;;;;;;5034037;28;49600;-68
2023/08/20 11:04:20;;;;;;;22.05;18.35;;;35.30;58.50;;;;;;5027850;28;49207;-67
2023/08/20 11:06:46;;;;;;;17.70;15.80;;;34.90;60.10;;;;;;5029762;28;48726;-68
2023/08/20 11:09:14;;;;;;;25.00;17.05;;;35.20;60.80;;;;;;5022582;28;49637;-67
2023/08/20 11:11:40;;;;;;;20.10;17.23;;;35.80;58.70;;;;;;5033593;28;50114;-68
2023/08/20 11:14:08;;;;;;;25.23;17.23;;;35.80;55.00;;;;;;5012088;28;74459;-69
2023/08/20 11:16:37;;;;;;;17.17;15.40;;;35.40;55.60;;;;;;5001079;28;50394;-68
2023/08/20 11:19:13;;;;;;;20.87;16.50;;;35.80;56.50;;;;;;4993617;28;62340;-67
2023/08/20 11:21:43;;;;;;;25.90;17.88;;;35.60;54.90;;;;;;5019148;28;50104;-69
2023/08/20 11:24:10;;;;;;;24.00;17.88;;;35.70;57.90;;;;;;5013276;28;50087;-68
2023/08/20 11:26:39;;;;;;;22.23;18.55;;;36.10;55.20;;;;;;5019033;28;50356;-68
2023/08/20 11:29:09;;;;;;;24.40;17.88;;;36.20;54.80;;;;;;5012691;28;50615;-68
2023/08/20 11:31:36;;;;;;;20.73;18.02;;;35.60;56.00;;;;;;5004391;28;91913;-68
2023/08/20 11:34:03;;;;;;;21.85;19.15;;;35.70;54.80;;;;;;4982229;28;49937;-67
2023/08/20 11:36:30;;;;;;;24.90;20.70;;;35.60;56.70;;;;;;5013981;28;49579;-68
2023/08/20 11:38:56;;;;;;;23.85;19.63;;;35.00;56.30;;;;;;5020923;28;49605;-68
2023/08/20 11:41:24;;;;;;;18.70;16.67;;;34.40;57.90;;;;;;5000919;28;48603;-68
2023/08/20 11:43:51;;;;;;;20.23;16.77;;;34.20;57.50;;;;;;4976745;28;48983;-68
2023/08/20 11:46:19;;;;;;;21.85;17.52;;;33.60;60.00;;;;;;5005190;28;25986;-68
2023/08/20 11:49:06;;;;;;;25.50;19.08;;;33.20;62.10;;;;;;4998850;28;48281;-68
2023/08/20 11:51:39;;;;;;;19.38;16.75;;;32.90;63.40;;;;;;4991146;28;27782;-67
2023/08/20 11:54:10;;;;;;;21.27;15.82;;;33.10;62.00;;;;;;4989867;28;48403;-67
2023/08/20 11:56:43;;;;;;;12.65;10.25;;;33.00;65.00;;;;;;4994532;28;73582;-67
2023/08/20 11:59:11;;;;;;;10.43;8.18;;;33.40;55.80;;;;;;4976981;28;74162;-68
2023/08/20 12:01:37;;;;;;;12.00;8.50;;;33.70;52.20;;;;;;4988444;28;54485;-68
2023/08/20 12:04:04;;;;;;;11.48;9.60;;;33.80;53.60;;;;;;4977142;28;49507;-67
2023/08/20 12:06:31;;;;;;;52.13;35.25;;;34.40;52.10;;;;;;4996460;28;49355;-68
2023/08/20 12:08:58;;;;;;;59.17;41.03;;;34.60;55.40;;;;;;4974601;28;49573;-68
2023/08/20 12:11:26;;;;;;;25.63;20.40;;;34.80;56.40;;;;;;4981549;28;49199;-68
2023/08/20 12:13:52;;;;;;;22.92;17.88;;;34.70;54.70;;;;;;4990025;28;48949;-68
2023/08/20 12:16:18;;;;;;;24.00;17.15;;;34.60;54.50;;;;;;4979829;28;25012;-67
2023/08/20 12:18:47;;;;;;;30.83;18.77;;;34.40;55.90;;;;;;4900664;28;50349;-67
2023/08/20 12:21:13;;;;;;;21.70;14.07;;;34.00;55.00;;;;;;4941425;28;59793;-68
2023/08/20 12:23:39;;;;;;;14.35;9.45;;;33.40;53.10;;;;;;4938136;28;49159;-67
2023/08/20 12:26:05;;;;;;;11.93;10.20;;;33.60;50.90;;;;;;4932885;28;49455;-67
2023/08/20 12:28:31;;;;;;;20.65;17.42;;;34.00;55.40;;;;;;4920169;28;48812;-68
2023/08/20 12:30:57;;;;;;;33.35;25.50;;;34.50;58.00;;;;;;4891446;28;48230;-68
2023/08/20 12:33:23;;;;;;;48.10;32.83;;;34.80;57.20;;;;;;4895053;28;48505;-67
2023/08/20 12:35:49;;;;;;;23.35;16.40;;;34.90;57.00;;;;;;4915782;28;49655;-67